createdAt,value
2023-03-20T00:02:02.769Z,1.53
2023-03-20T00:04:30.846Z,1.30
2023-03-20T00:06:58.918Z,2.17
2023-03-20T00:09:27.128Z,1.57
2023-03-20T00:11:56.958Z,1.40
2023-03-20T00:14:26.256Z,6.07
2023-03-20T00:16:54.344Z,2.70
2023-03-20T00:19:24.342Z,1.37
2023-03-20T00:21:53.551Z,2.50
2023-03-20T00:24:21.982Z,1.70
2023-03-20T00:26:51.667Z,1.73
2023-03-20T00:29:23.818Z,1.37
2023-03-20T00:31:52.365Z,1.53
2023-03-20T00:34:23.446Z,1.37
2023-03-20T00:36:51.998Z,1.20
2023-03-20T00:39:20.131Z,1.30
2023-03-20T00:41:52.322Z,1.30
2023-03-20T00:44:27.357Z,2.50
2023-03-20T00:46:58.243Z,3.93
2023-03-20T00:49:28.899Z,1.50
2023-03-20T00:51:58.262Z,1.63
2023-03-20T00:54:26.867Z,2.47
2023-03-20T00:56:59.269Z,1.63
2023-03-20T00:59:32.269Z,1.63
2023-03-20T01:02:02.457Z,1.50
2023-03-20T01:04:37.261Z,2.13
2023-03-20T01:07:06.219Z,2.37
2023-03-20T01:09:34.774Z,2.43
2023-03-20T01:12:04.517Z,2.20
2023-03-20T01:14:33.885Z,2.20
2023-03-20T01:17:01.983Z,4.13
2023-03-20T01:19:30.038Z,2.10
2023-03-20T01:21:58.070Z,1.90
2023-03-20T01:24:26.206Z,1.53
2023-03-20T01:26:54.718Z,3.17
2023-03-20T01:29:24.904Z,2.77
2023-03-20T01:31:55.405Z,2.47
2023-03-20T01:34:27.770Z,7.57
2023-03-20T01:36:59.257Z,2.73
2023-03-20T01:39:32.789Z,4.60
2023-03-20T01:42:01.887Z,4.43
2023-03-20T01:44:34.640Z,4.00
2023-03-20T01:47:12.700Z,8.27
2023-03-20T01:50:18.459Z,5.37
2023-03-20T01:52:49.195Z,10.97
2023-03-20T01:55:17.922Z,7.97
2023-03-20T01:57:52.269Z,6.97
2023-03-20T02:00:20.902Z,6.63
2023-03-20T02:02:51.142Z,10.50
2023-03-20T02:05:42.978Z,4.97
2023-03-20T02:08:20.196Z,8.23
2023-03-20T02:10:50.164Z,6.43
2023-03-20T02:13:31.996Z,5.70
2023-03-20T02:16:05.559Z,6.80
2023-03-20T02:18:56.182Z,5.40
2023-03-20T02:22:10.528Z,5.27
2023-03-20T02:25:15.706Z,4.80
2023-03-20T02:28:02.573Z,5.93
2023-03-20T02:30:59.408Z,4.30
2023-03-20T02:33:50.999Z,4.00
2023-03-20T02:36:53.880Z,7.70
2023-03-20T02:39:39.972Z,5.70
2023-03-20T02:42:14.904Z,4.27
2023-03-20T02:44:49.204Z,5.47
2023-03-20T02:47:24.723Z,7.83
2023-03-20T02:50:02.696Z,8.77
2023-03-20T02:52:37.001Z,5.37
2023-03-20T02:55:16.176Z,6.87
2023-03-20T02:57:52.765Z,6.70
2023-03-20T03:00:28.396Z,6.70
2023-03-20T03:03:05.850Z,10.20
2023-03-20T03:05:38.962Z,6.43
2023-03-20T03:08:10.993Z,9.00
2023-03-20T03:10:44.404Z,7.93
2023-03-20T03:13:18.257Z,11.70
2023-03-20T03:15:49.318Z,7.40
2023-03-20T03:18:21.810Z,7.67
2023-03-20T03:20:56.666Z,9.20
2023-03-20T03:23:30.683Z,9.73
2023-03-20T03:26:02.011Z,9.87
2023-03-20T03:28:37.226Z,8.20
2023-03-20T03:31:09.172Z,9.10
2023-03-20T03:33:41.087Z,9.33
2023-03-20T03:36:17.924Z,9.53
2023-03-20T03:38:55.691Z,8.33
2023-03-20T03:41:31.225Z,6.83
2023-03-20T03:44:09.801Z,18.40
2023-03-20T03:46:44.884Z,9.80
2023-03-20T03:49:17.636Z,11.87
2023-03-20T03:51:51.383Z,10.17
2023-03-20T03:54:23.453Z,20.00
2023-03-20T03:57:24.768Z,18.70
2023-03-20T03:59:55.061Z,10.90
2023-03-20T04:02:24.161Z,9.23
2023-03-20T04:04:54.738Z,17.30
2023-03-20T04:07:22.832Z,13.40
2023-03-20T04:09:50.906Z,13.80
2023-03-20T04:12:35.323Z,15.70
2023-03-20T04:15:04.252Z,17.30
2023-03-20T04:17:34.113Z,20.87
2023-03-20T04:20:02.766Z,30.57
2023-03-20T04:22:31.165Z,39.73
2023-03-20T04:25:07.435Z,32.63
2023-03-20T04:27:37.196Z,34.20
2023-03-20T04:30:13.349Z,31.60
2023-03-20T04:33:00.949Z,34.57
2023-03-20T04:35:52.577Z,36.70
2023-03-20T04:38:21.498Z,32.80
2023-03-20T04:40:50.441Z,29.10
2023-03-20T04:43:19.916Z,36.00
2023-03-20T04:45:48.080Z,32.63
2023-03-20T04:48:16.201Z,33.60
2023-03-20T04:50:46.632Z,31.40
2023-03-20T04:53:15.303Z,34.50
2023-03-20T04:55:44.902Z,39.50
2023-03-20T04:58:14.155Z,34.03
2023-03-20T05:00:44.388Z,30.83
2023-03-20T05:03:12.590Z,28.17
2023-03-20T05:05:41.502Z,29.80
2023-03-20T05:08:09.729Z,26.77
2023-03-20T05:10:39.520Z,27.13
2023-03-20T05:13:19.060Z,28.27
2023-03-20T05:16:05.757Z,21.70
2023-03-20T05:18:45.689Z,23.60
2023-03-20T05:21:38.939Z,20.60
2023-03-20T05:24:13.536Z,25.03
2023-03-20T05:26:52.138Z,19.17
2023-03-20T05:29:38.654Z,19.20
2023-03-20T05:32:08.236Z,18.83
2023-03-20T05:34:59.079Z,20.30
2023-03-20T05:37:36.100Z,19.10
2023-03-20T05:40:14.944Z,18.83
2023-03-20T05:43:13.741Z,22.07
2023-03-20T05:46:10.909Z,22.07
2023-03-20T05:48:58.963Z,24.20
2023-03-20T05:51:45.587Z,20.63
2023-03-20T05:54:39.881Z,19.77
2023-03-20T05:57:18.162Z,19.87
2023-03-20T06:00:08.386Z,20.57
2023-03-20T06:02:51.593Z,20.00
2023-03-20T06:05:42.187Z,18.90
2023-03-20T06:08:10.479Z,17.17
2023-03-20T06:10:38.649Z,23.13
2023-03-20T06:13:06.934Z,22.30
2023-03-20T06:15:35.542Z,18.03
2023-03-20T06:18:13.097Z,16.03
2023-03-20T06:20:43.183Z,16.47
2023-03-20T06:23:11.202Z,18.50
2023-03-20T06:25:39.546Z,19.63
2023-03-20T06:28:08.592Z,16.90
2023-03-20T06:30:36.633Z,17.73
2023-03-20T06:33:06.961Z,18.97
2023-03-20T06:35:46.752Z,18.67
2023-03-20T06:38:15.005Z,15.43
2023-03-20T06:40:45.153Z,16.20
2023-03-20T06:43:14.120Z,18.33
2023-03-20T06:45:48.510Z,18.93
2023-03-20T06:48:23.123Z,18.50
2023-03-20T06:50:53.733Z,23.83
2023-03-20T06:53:25.347Z,20.80
2023-03-20T06:56:00.530Z,24.40
2023-03-20T06:58:28.590Z,21.03
2023-03-20T07:00:57.359Z,22.30
2023-03-20T07:03:26.232Z,23.67
2023-03-20T07:05:56.391Z,23.80
2023-03-20T07:08:24.674Z,24.27
2023-03-20T07:10:53.431Z,21.20
2023-03-20T07:13:21.776Z,16.67
2023-03-20T07:16:03.374Z,17.67
2023-03-20T07:18:36.098Z,15.23
2023-03-20T07:21:07.917Z,15.90
2023-03-20T07:23:37.076Z,16.10
2023-03-20T07:26:05.555Z,16.80
2023-03-20T07:28:34.371Z,19.00
2023-03-20T07:31:21.982Z,17.30
2023-03-20T07:33:55.114Z,16.13
2023-03-20T07:36:25.385Z,16.07
2023-03-20T07:38:53.463Z,18.07
2023-03-20T07:41:21.556Z,17.90
2023-03-20T07:44:00.187Z,17.83
2023-03-20T07:46:40.978Z,14.93
2023-03-20T07:49:09.067Z,15.83
2023-03-20T07:51:38.427Z,18.30
2023-03-20T07:54:06.703Z,16.57
2023-03-20T07:56:34.710Z,29.27
2023-03-20T07:59:02.833Z,16.70
2023-03-20T08:01:30.893Z,18.90
2023-03-20T08:03:59.257Z,17.83
2023-03-20T08:06:27.895Z,22.20
2023-03-20T08:08:57.559Z,13.90
2023-03-20T08:11:25.621Z,20.40
2023-03-20T08:13:53.661Z,21.93
2023-03-20T08:16:21.759Z,15.83
2023-03-20T08:18:50.506Z,16.90
2023-03-20T08:21:18.569Z,19.00
2023-03-20T08:23:47.031Z,20.53
2023-03-20T08:26:16.545Z,18.20
2023-03-20T08:28:47.869Z,18.10
2023-03-20T08:31:17.664Z,18.33
2023-03-20T08:33:46.862Z,17.27
2023-03-20T08:36:16.219Z,25.40
2023-03-20T08:38:44.464Z,24.30
2023-03-20T08:41:12.545Z,26.10
2023-03-20T08:43:42.062Z,21.13
2023-03-20T08:46:11.018Z,20.80
2023-03-20T08:48:39.101Z,22.30
2023-03-20T08:51:08.247Z,19.53
2023-03-20T08:53:36.985Z,20.70
2023-03-20T08:56:05.736Z,20.23
2023-03-20T08:58:33.763Z,21.37
2023-03-20T09:01:06.541Z,20.10
2023-03-20T09:03:34.703Z,21.47
2023-03-20T09:06:05.585Z,25.70
2023-03-20T09:08:33.748Z,24.77
2023-03-20T09:11:01.896Z,23.63
2023-03-20T09:13:29.869Z,30.83
2023-03-20T09:15:58.327Z,26.40
2023-03-20T09:18:28.276Z,24.80
2023-03-20T09:20:57.179Z,24.57
2023-03-20T09:23:25.516Z,30.50
2023-03-20T09:25:53.568Z,22.33
2023-03-20T09:28:21.652Z,26.40
2023-03-20T09:30:49.714Z,25.17
2023-03-20T09:33:18.931Z,27.47
2023-03-20T09:35:48.379Z,28.93
2023-03-20T09:38:16.605Z,25.87
2023-03-20T09:40:56.870Z,32.40
2023-03-20T09:43:38.039Z,31.00
2023-03-20T09:46:17.387Z,23.37
2023-03-20T09:48:54.231Z,26.30
2023-03-20T09:51:32.789Z,21.63
2023-03-20T09:54:05.250Z,24.83
2023-03-20T09:56:33.495Z,24.17
2023-03-20T09:59:04.216Z,20.17
2023-03-20T10:01:39.601Z,20.13
2023-03-20T10:04:10.027Z,22.10
2023-03-20T10:06:40.450Z,20.97
2023-03-20T10:09:18.660Z,19.60
2023-03-20T10:12:06.661Z,16.37
2023-03-20T10:14:44.492Z,16.03
2023-03-20T10:17:30.819Z,17.13
2023-03-20T10:19:59.846Z,12.97
2023-03-20T10:22:35.499Z,10.00
2023-03-20T10:25:08.671Z,10.77
2023-03-20T10:27:41.256Z,7.13
2023-03-20T10:30:27.824Z,5.87
2023-03-20T10:33:07.777Z,6.50
2023-03-20T10:35:40.766Z,7.47
2023-03-20T10:38:20.402Z,7.73
2023-03-20T10:40:48.948Z,9.67
2023-03-20T10:43:20.013Z,4.23
2023-03-20T10:45:51.611Z,5.10
2023-03-20T10:48:26.135Z,6.70
2023-03-20T10:50:56.544Z,5.33
2023-03-20T10:53:33.076Z,5.40
2023-03-20T10:56:06.479Z,4.60
2023-03-20T10:58:39.552Z,3.87
2023-03-20T11:01:07.818Z,3.53
2023-03-20T11:03:39.678Z,4.57
2023-03-20T11:06:14.432Z,4.10
2023-03-20T11:08:48.594Z,7.10
2023-03-20T11:11:23.947Z,7.93
2023-03-20T11:13:52.461Z,9.20
2023-03-20T11:16:23.528Z,3.97
2023-03-20T11:18:54.960Z,7.17
2023-03-20T11:21:26.051Z,7.10
2023-03-20T11:23:56.387Z,8.17
2023-03-20T11:26:35.600Z,6.90
2023-03-20T11:29:06.350Z,6.10
2023-03-20T11:31:37.279Z,5.67
2023-03-20T11:34:22.714Z,4.03
2023-03-20T11:37:09.268Z,4.13
2023-03-20T11:39:41.276Z,4.53
2023-03-20T11:42:25.148Z,5.57
2023-03-20T11:45:01.581Z,8.30
2023-03-20T11:47:34.744Z,4.30
2023-03-20T11:50:05.594Z,6.83
2023-03-20T11:52:35.962Z,6.50
2023-03-20T11:55:08.264Z,5.70
2023-03-20T11:57:38.733Z,6.70
2023-03-20T12:00:17.491Z,3.67
2023-03-20T12:02:46.221Z,4.53
2023-03-20T12:05:30.184Z,3.83
2023-03-20T12:08:02.298Z,3.47
2023-03-20T12:10:37.170Z,9.17
2023-03-20T12:13:14.321Z,4.07
2023-03-20T12:15:47.670Z,5.07
2023-03-20T12:18:32.351Z,7.57
2023-03-20T12:21:08.821Z,6.17
2023-03-20T12:23:41.318Z,4.60
2023-03-20T12:26:15.109Z,3.33
2023-03-20T12:28:49.485Z,5.23
2023-03-20T12:31:24.662Z,8.60
2023-03-20T12:33:58.051Z,5.83
2023-03-20T12:36:32.344Z,4.43
2023-03-20T12:39:01.004Z,3.30
2023-03-20T12:41:35.274Z,2.00
2023-03-20T12:44:20.989Z,3.33
2023-03-20T12:46:58.658Z,3.90
2023-03-20T12:49:36.266Z,3.40
2023-03-20T12:52:13.340Z,2.40
2023-03-20T12:55:07.242Z,2.10
2023-03-20T12:57:40.137Z,1.50
2023-03-20T13:00:20.164Z,1.83
2023-03-20T13:03:03.629Z,1.37
2023-03-20T13:05:42.612Z,1.80
2023-03-20T13:08:32.514Z,2.23
2023-03-20T13:11:12.610Z,1.20
2023-03-20T13:13:48.414Z,8.10
2023-03-20T13:16:23.575Z,2.60
2023-03-20T13:19:01.191Z,3.33
2023-03-20T13:21:36.718Z,1.33
2023-03-20T13:24:20.774Z,1.27
2023-03-20T13:26:57.170Z,1.70
2023-03-20T13:29:34.855Z,2.37
2023-03-20T13:32:14.557Z,0.90
2023-03-20T13:35:01.892Z,1.43
2023-03-20T13:37:35.989Z,0.87
2023-03-20T13:40:15.349Z,0.97
2023-03-20T13:42:48.766Z,1.10
2023-03-20T13:45:31.714Z,1.97
2023-03-20T13:48:04.404Z,3.03
2023-03-20T13:50:41.204Z,1.10
2023-03-20T13:53:22.242Z,1.47
2023-03-20T13:55:56.975Z,2.23
2023-03-20T13:58:49.789Z,1.30
2023-03-20T14:01:26.629Z,1.90
2023-03-20T14:03:55.532Z,1.90
2023-03-20T14:06:49.957Z,1.60
2023-03-20T14:09:33.076Z,2.67
2023-03-20T14:12:07.257Z,2.13
2023-03-20T14:14:42.746Z,1.73
2023-03-20T14:17:17.879Z,1.07
2023-03-20T14:19:47.189Z,1.50
2023-03-20T14:22:20.558Z,2.10
2023-03-20T14:24:55.013Z,4.50
2023-03-20T14:27:42.818Z,3.00
2023-03-20T14:30:42.049Z,1.90
2023-03-20T14:33:26.940Z,2.83
2023-03-20T14:36:17.589Z,2.90
2023-03-20T14:38:54.972Z,2.43
2023-03-20T14:41:28.204Z,3.20
2023-03-20T14:44:05.595Z,3.50
2023-03-20T14:46:46.495Z,3.63
2023-03-20T14:49:35.366Z,2.23
2023-03-20T14:52:19.863Z,3.80
2023-03-20T14:54:54.087Z,1.50
2023-03-20T14:57:35.758Z,2.83
2023-03-20T15:00:19.560Z,2.17
2023-03-20T15:02:51.584Z,2.43
2023-03-20T15:05:29.224Z,2.13
2023-03-20T15:07:58.893Z,5.07
2023-03-20T15:10:27.120Z,2.17
2023-03-20T15:12:57.985Z,5.87
2023-03-20T15:15:29.170Z,2.40
2023-03-20T15:17:57.297Z,2.23
2023-03-20T15:20:29.286Z,5.00
2023-03-20T15:23:00.094Z,1.13
2023-03-20T15:25:32.535Z,1.17
2023-03-20T15:28:00.799Z,1.40
2023-03-20T15:30:32.023Z,1.00
2023-03-20T15:33:00.343Z,0.73
2023-03-20T15:35:30.034Z,1.27
2023-03-20T15:38:05.538Z,0.97
2023-03-20T15:40:49.701Z,1.10
2023-03-20T15:43:21.850Z,1.83
2023-03-20T15:45:50.732Z,1.30
2023-03-20T15:48:20.451Z,2.10
2023-03-20T15:50:53.825Z,1.23
2023-03-20T15:53:30.124Z,0.80
2023-03-20T15:56:17.310Z,1.60
2023-03-20T15:58:48.142Z,2.10
2023-03-20T16:01:20.171Z,1.80
2023-03-20T16:03:49.354Z,1.07
2023-03-20T16:06:21.614Z,1.80
2023-03-20T16:08:58.014Z,1.00
2023-03-20T16:11:26.236Z,4.83
2023-03-20T16:13:55.534Z,1.10
2023-03-20T16:16:25.551Z,0.90
2023-03-20T16:18:54.425Z,1.13
2023-03-20T16:21:27.090Z,1.87
2023-03-20T16:23:57.316Z,2.67
2023-03-20T16:26:27.198Z,2.27
2023-03-20T16:28:57.282Z,3.73
2023-03-20T16:31:29.974Z,1.57
2023-03-20T16:34:01.014Z,4.60
2023-03-20T16:36:32.648Z,2.70
2023-03-20T16:39:08.085Z,2.67
2023-03-20T16:41:37.651Z,2.20
2023-03-20T16:44:09.121Z,1.20
2023-03-20T16:46:37.200Z,2.83
2023-03-20T16:49:52.775Z,1.37
2023-03-20T16:52:28.146Z,1.53
2023-03-20T16:54:58.535Z,3.37
2023-03-20T16:57:28.465Z,2.00
2023-03-20T17:00:01.043Z,1.93
2023-03-20T17:02:33.072Z,1.47
2023-03-20T17:05:05.515Z,2.40
2023-03-20T17:07:34.862Z,1.30
2023-03-20T17:10:20.064Z,1.77
2023-03-20T17:12:49.301Z,2.50
2023-03-20T17:15:19.060Z,3.93
2023-03-20T17:17:47.305Z,2.50
2023-03-20T17:20:20.691Z,7.60
2023-03-20T17:22:50.456Z,1.90
2023-03-20T17:25:18.566Z,3.73
2023-03-20T17:27:46.668Z,2.40
2023-03-20T17:30:18.632Z,2.40
2023-03-20T17:32:47.017Z,3.10
2023-03-20T17:35:15.502Z,4.43
2023-03-20T17:37:43.954Z,3.83
2023-03-20T17:40:19.172Z,2.90
2023-03-20T17:42:47.709Z,1.70
2023-03-20T17:45:18.616Z,10.20
2023-03-20T17:47:48.823Z,2.53
2023-03-20T17:50:24.270Z,6.17
2023-03-20T17:52:52.731Z,4.07
2023-03-20T17:55:22.385Z,3.93
2023-03-20T17:57:50.488Z,2.70
2023-03-20T18:00:21.073Z,3.03
2023-03-20T18:02:49.404Z,3.97
2023-03-20T18:05:17.944Z,2.60
2023-03-20T18:07:46.059Z,2.33
2023-03-20T18:10:21.762Z,3.90
2023-03-20T18:12:51.126Z,3.07
2023-03-20T18:15:19.121Z,2.90
2023-03-20T18:17:47.230Z,4.90
2023-03-20T18:20:25.199Z,3.47
2023-03-20T18:22:53.233Z,2.10
2023-03-20T18:25:22.179Z,3.30
2023-03-20T18:27:51.590Z,2.63
2023-03-20T18:30:21.822Z,13.93
2023-03-20T18:32:49.959Z,3.03
2023-03-20T18:35:18.580Z,3.30
2023-03-20T18:37:46.598Z,4.60
2023-03-20T18:40:20.293Z,3.63
2023-03-20T18:42:48.372Z,2.80
2023-03-20T18:45:17.995Z,4.13
2023-03-20T18:47:46.395Z,5.27
2023-03-20T18:50:23.548Z,2.43
2023-03-20T18:52:51.971Z,5.93
2023-03-20T18:55:20.175Z,4.13
2023-03-20T18:57:48.615Z,3.43
2023-03-20T19:00:23.034Z,4.10
2023-03-20T19:02:51.970Z,4.40
2023-03-20T19:05:20.707Z,5.07
2023-03-20T19:07:49.370Z,7.90
2023-03-20T19:10:25.817Z,3.87
2023-03-20T19:12:54.520Z,4.97
2023-03-20T19:15:25.807Z,7.30
2023-03-20T19:17:54.141Z,5.50
2023-03-20T19:20:36.470Z,4.13
2023-03-20T19:23:06.230Z,2.70
2023-03-20T19:25:34.748Z,4.17
2023-03-20T19:28:03.363Z,4.50
2023-03-20T19:30:35.307Z,5.10
2023-03-20T19:33:04.026Z,6.40
2023-03-20T19:36:01.238Z,4.93
2023-03-20T19:38:22.981Z,5.37
2023-03-20T19:40:53.362Z,3.33
2023-03-20T19:43:22.497Z,4.70
2023-03-20T19:45:58.030Z,3.40
2023-03-20T19:48:43.394Z,5.13
2023-03-20T19:51:18.698Z,3.73
2023-03-20T19:53:47.169Z,2.13
2023-03-20T19:56:16.641Z,4.30
2023-03-20T19:58:44.941Z,6.23
2023-03-20T20:01:18.029Z,2.87
2023-03-20T20:03:46.869Z,3.07
2023-03-20T20:06:15.915Z,4.80
2023-03-20T20:08:48.663Z,2.27
2023-03-20T20:11:18.141Z,2.10
2023-03-20T20:14:07.001Z,2.93
2023-03-20T20:16:36.976Z,14.37
2023-03-20T20:19:05.831Z,3.73
2023-03-20T20:24:22.722Z,5.63
2023-03-20T20:27:03.484Z,2.73
2023-03-20T20:29:39.301Z,2.40
2023-03-20T20:32:09.146Z,3.07
2023-03-20T20:40:17.899Z,4.93
2023-03-20T20:42:49.239Z,3.70
2023-03-20T20:45:17.343Z,1.60
2023-03-20T20:47:47.863Z,3.97
2023-03-20T20:50:17.729Z,4.77
2023-03-20T20:52:46.174Z,3.33
2023-03-20T20:55:22.877Z,2.67
2023-03-20T20:58:05.775Z,3.50
2023-03-20T21:00:48.646Z,2.43
2023-03-20T21:03:20.909Z,3.20
2023-03-20T21:05:49.072Z,5.37
2023-03-20T21:08:18.479Z,7.90
2023-03-20T21:10:47.034Z,4.80
2023-03-20T21:13:15.628Z,5.87
2023-03-20T21:15:45.396Z,5.80
2023-03-20T21:18:13.593Z,3.30
2023-03-20T21:20:42.972Z,3.73
2023-03-20T21:23:11.238Z,7.63
2023-03-20T21:25:41.607Z,5.83
2023-03-20T21:28:11.024Z,5.30
2023-03-20T21:30:46.798Z,2.43
2023-03-20T21:33:19.142Z,4.43
2023-03-20T21:35:49.710Z,4.23
2023-03-20T21:41:11.038Z,9.30
2023-03-20T21:43:39.740Z,8.20
2023-03-20T21:49:49.849Z,4.93
2023-03-20T21:55:11.230Z,4.90
2023-03-20T21:58:09.968Z,16.03
2023-03-20T22:03:09.102Z,5.13
2023-03-20T22:29:09.658Z,4.80
2023-03-20T22:34:32.126Z,3.13
2023-03-20T22:40:14.401Z,3.53
2023-03-20T22:45:05.553Z,4.37
2023-03-20T22:47:35.286Z,4.23
2023-03-20T22:50:03.596Z,4.60
2023-03-20T22:52:47.636Z,4.97
2023-03-20T22:55:17.898Z,6.97
2023-03-20T22:58:03.846Z,4.33
2023-03-20T23:00:35.035Z,2.47
2023-03-20T23:03:17.313Z,3.00
2023-03-20T23:05:48.418Z,8.33
2023-03-20T23:08:16.685Z,4.83
2023-03-20T23:10:46.343Z,8.23
2023-03-20T23:13:16.655Z,8.20
2023-03-20T23:15:46.637Z,5.33
2023-03-20T23:18:15.399Z,3.53
2023-03-20T23:20:44.059Z,4.50
2023-03-20T23:23:12.099Z,3.70
2023-03-20T23:25:40.752Z,5.17
2023-03-20T23:28:10.170Z,4.37
2023-03-20T23:30:48.027Z,3.90
2023-03-20T23:33:19.931Z,4.67
2023-03-20T23:35:48.784Z,4.70
2023-03-20T23:38:17.795Z,4.10
2023-03-20T23:40:50.153Z,6.60
2023-03-20T23:43:18.332Z,6.37
2023-03-20T23:45:48.421Z,7.33
2023-03-20T23:48:17.329Z,5.50
2023-03-20T23:50:53.095Z,4.13
2023-03-20T23:53:22.030Z,5.83
2023-03-20T23:55:51.724Z,3.30
2023-03-20T23:58:20.517Z,8.90
